sensor_id;sensor_type;location;lat;lon;timestamp;P1;durP1;ratioP1;P2;durP2;ratioP2
48367;SDS011;34173;47.446;18.912;2022-11-20T00:01:21;20.55;;;9.57;;
48367;SDS011;34173;47.446;18.912;2022-11-20T00:03:51;21.17;;;10.18;;
48367;SDS011;34173;47.446;18.912;2022-11-20T00:06:20;25.52;;;9.90;;
48367;SDS011;34173;47.446;18.912;2022-11-20T00:08:48;18.40;;;9.05;;
48367;SDS011;34173;47.446;18.912;2022-11-20T00:11:17;21.40;;;10.25;;
48367;SDS011;34173;47.446;18.912;2022-11-20T00:13:46;24.95;;;12.75;;
48367;SDS011;34173;47.446;18.912;2022-11-20T00:16:16;25.35;;;11.48;;
48367;SDS011;34173;47.446;18.912;2022-11-20T00:18:45;26.60;;;12.07;;
48367;SDS011;34173;47.446;18.912;2022-11-20T00:21:17;24.05;;;10.63;;
48367;SDS011;34173;47.446;18.912;2022-11-20T00:23:49;28.80;;;12.85;;
48367;SDS011;34173;47.446;18.912;2022-11-20T00:26:20;25.85;;;12.52;;
48367;SDS011;34173;47.446;18.912;2022-11-20T00:28:49;25.58;;;10.70;;
48367;SDS011;34173;47.446;18.912;2022-11-20T00:31:18;22.95;;;11.38;;
48367;SDS011;34173;47.446;18.912;2022-11-20T00:33:45;24.10;;;11.52;;
48367;SDS011;34173;47.446;18.912;2022-11-20T00:36:14;23.55;;;10.98;;
48367;SDS011;34173;47.446;18.912;2022-11-20T00:38:43;25.12;;;12.60;;
48367;SDS011;34173;47.446;18.912;2022-11-20T00:41:12;24.52;;;11.63;;
48367;SDS011;34173;47.446;18.912;2022-11-20T00:43:42;23.95;;;11.18;;
48367;SDS011;34173;47.446;18.912;2022-11-20T00:46:13;21.87;;;10.93;;
48367;SDS011;34173;47.446;18.912;2022-11-20T00:48:43;22.87;;;10.93;;
48367;SDS011;34173;47.446;18.912;2022-11-20T00:51:12;20.48;;;9.63;;
48367;SDS011;34173;47.446;18.912;2022-11-20T00:53:40;18.25;;;8.82;;
48367;SDS011;34173;47.446;18.912;2022-11-20T00:56:12;18.55;;;8.95;;
48367;SDS011;34173;47.446;18.912;2022-11-20T00:58:42;20.75;;;8.57;;
48367;SDS011;34173;47.446;18.912;2022-11-20T01:01:12;15.88;;;7.78;;
48367;SDS011;34173;47.446;18.912;2022-11-20T01:03:43;17.52;;;7.93;;
48367;SDS011;34173;47.446;18.912;2022-11-20T01:06:14;15.75;;;7.65;;
48367;SDS011;34173;47.446;18.912;2022-11-20T01:08:44;17.55;;;8.77;;
48367;SDS011;34173;47.446;18.912;2022-11-20T01:11:14;17.10;;;8.20;;
48367;SDS011;34173;47.446;18.912;2022-11-20T01:13:46;19.55;;;9.20;;
48367;SDS011;34173;47.446;18.912;2022-11-20T01:16:16;23.87;;;10.75;;
48367;SDS011;34173;47.446;18.912;2022-11-20T01:18:50;21.60;;;10.32;;
48367;SDS011;34173;47.446;18.912;2022-11-20T01:21:19;21.80;;;9.60;;
48367;SDS011;34173;47.446;18.912;2022-11-20T01:23:49;22.05;;;10.43;;
48367;SDS011;34173;47.446;18.912;2022-11-20T01:26:21;20.88;;;9.40;;
48367;SDS011;34173;47.446;18.912;2022-11-20T01:28:50;26.23;;;12.10;;
48367;SDS011;34173;47.446;18.912;2022-11-20T01:33:48;21.08;;;9.52;;
48367;SDS011;34173;47.446;18.912;2022-11-20T01:36:17;25.20;;;10.05;;
48367;SDS011;34173;47.446;18.912;2022-11-20T01:38:45;21.27;;;10.00;;
48367;SDS011;34173;47.446;18.912;2022-11-20T01:41:14;23.08;;;9.88;;
48367;SDS011;34173;47.446;18.912;2022-11-20T01:44:02;19.15;;;9.50;;
48367;SDS011;34173;47.446;18.912;2022-11-20T01:46:31;18.67;;;9.45;;
48367;SDS011;34173;47.446;18.912;2022-11-20T01:49:01;16.77;;;8.35;;
48367;SDS011;34173;47.446;18.912;2022-11-20T01:54:42;19.00;;;8.15;;
48367;SDS011;34173;47.446;18.912;2022-11-20T01:57:16;21.33;;;8.98;;
48367;SDS011;34173;47.446;18.912;2022-11-20T01:59:47;18.52;;;9.27;;
48367;SDS011;34173;47.446;18.912;2022-11-20T02:02:19;20.40;;;10.03;;
48367;SDS011;34173;47.446;18.912;2022-11-20T02:04:48;22.80;;;9.80;;
48367;SDS011;34173;47.446;18.912;2022-11-20T02:07:16;20.62;;;9.60;;
48367;SDS011;34173;47.446;18.912;2022-11-20T02:09:44;21.00;;;9.23;;
48367;SDS011;34173;47.446;18.912;2022-11-20T02:12:12;21.95;;;10.27;;
48367;SDS011;34173;47.446;18.912;2022-11-20T02:14:59;18.60;;;7.87;;
48367;SDS011;34173;47.446;18.912;2022-11-20T02:17:27;20.92;;;9.07;;
48367;SDS011;34173;47.446;18.912;2022-11-20T02:19:55;21.30;;;9.70;;
48367;SDS011;34173;47.446;18.912;2022-11-20T02:22:29;23.67;;;10.13;;
48367;SDS011;34173;47.446;18.912;2022-11-20T02:24:58;23.80;;;11.48;;
48367;SDS011;34173;47.446;18.912;2022-11-20T02:27:33;24.40;;;10.68;;
48367;SDS011;34173;47.446;18.912;2022-11-20T02:30:01;23.12;;;10.68;;
48367;SDS011;34173;47.446;18.912;2022-11-20T02:32:35;26.35;;;12.75;;
48367;SDS011;34173;47.446;18.912;2022-11-20T02:38:00;27.42;;;12.30;;
48367;SDS011;34173;47.446;18.912;2022-11-20T02:40:29;23.48;;;10.68;;
48367;SDS011;34173;47.446;18.912;2022-11-20T02:42:57;23.00;;;10.35;;
48367;SDS011;34173;47.446;18.912;2022-11-20T02:45:24;25.45;;;11.57;;
48367;SDS011;34173;47.446;18.912;2022-11-20T02:47:52;26.77;;;11.45;;
48367;SDS011;34173;47.446;18.912;2022-11-20T02:50:19;28.77;;;12.82;;
48367;SDS011;34173;47.446;18.912;2022-11-20T02:52:47;29.92;;;13.30;;
48367;SDS011;34173;47.446;18.912;2022-11-20T02:55:14;26.15;;;11.90;;
48367;SDS011;34173;47.446;18.912;2022-11-20T02:57:42;31.73;;;14.18;;
48367;SDS011;34173;47.446;18.912;2022-11-20T03:00:10;30.52;;;14.10;;
48367;SDS011;34173;47.446;18.912;2022-11-20T03:02:38;32.35;;;15.00;;
48367;SDS011;34173;47.446;18.912;2022-11-20T03:05:06;30.98;;;13.07;;
48367;SDS011;34173;47.446;18.912;2022-11-20T03:07:33;30.02;;;13.98;;
48367;SDS011;34173;47.446;18.912;2022-11-20T03:10:01;29.42;;;12.77;;
48367;SDS011;34173;47.446;18.912;2022-11-20T03:12:28;26.33;;;11.90;;
48367;SDS011;34173;47.446;18.912;2022-11-20T03:14:56;29.33;;;13.48;;
48367;SDS011;34173;47.446;18.912;2022-11-20T03:17:23;28.15;;;12.55;;
48367;SDS011;34173;47.446;18.912;2022-11-20T03:19:51;29.40;;;13.13;;
48367;SDS011;34173;47.446;18.912;2022-11-20T03:22:18;30.95;;;12.07;;
48367;SDS011;34173;47.446;18.912;2022-11-20T03:24:46;31.92;;;14.57;;
48367;SDS011;34173;47.446;18.912;2022-11-20T03:27:13;33.30;;;13.48;;
48367;SDS011;34173;47.446;18.912;2022-11-20T03:29:40;33.45;;;15.70;;
48367;SDS011;34173;47.446;18.912;2022-11-20T03:32:08;33.75;;;14.38;;
48367;SDS011;34173;47.446;18.912;2022-11-20T03:34:35;32.75;;;14.07;;
48367;SDS011;34173;47.446;18.912;2022-11-20T03:37:03;29.35;;;12.90;;
48367;SDS011;34173;47.446;18.912;2022-11-20T03:39:30;30.45;;;13.35;;
48367;SDS011;34173;47.446;18.912;2022-11-20T03:41:58;28.87;;;12.43;;
48367;SDS011;34173;47.446;18.912;2022-11-20T03:44:25;30.20;;;13.05;;
48367;SDS011;34173;47.446;18.912;2022-11-20T03:46:53;30.40;;;13.43;;
48367;SDS011;34173;47.446;18.912;2022-11-20T03:49:20;28.67;;;13.52;;
48367;SDS011;34173;47.446;18.912;2022-11-20T03:51:48;31.67;;;13.80;;
48367;SDS011;34173;47.446;18.912;2022-11-20T03:54:17;34.08;;;13.95;;
48367;SDS011;34173;47.446;18.912;2022-11-20T03:56:44;28.67;;;12.70;;
48367;SDS011;34173;47.446;18.912;2022-11-20T03:59:11;29.80;;;13.27;;
48367;SDS011;34173;47.446;18.912;2022-11-20T04:01:39;30.42;;;13.43;;
48367;SDS011;34173;47.446;18.912;2022-11-20T04:04:14;33.20;;;14.50;;
48367;SDS011;34173;47.446;18.912;2022-11-20T04:06:41;29.23;;;12.45;;
48367;SDS011;34173;47.446;18.912;2022-11-20T04:09:09;27.48;;;12.95;;
48367;SDS011;34173;47.446;18.912;2022-11-20T04:11:37;34.53;;;13.98;;
48367;SDS011;34173;47.446;18.912;2022-11-20T04:14:11;31.27;;;13.15;;
48367;SDS011;34173;47.446;18.912;2022-11-20T04:16:40;30.85;;;12.55;;
48367;SDS011;34173;47.446;18.912;2022-11-20T04:19:12;28.75;;;13.95;;
48367;SDS011;34173;47.446;18.912;2022-11-20T04:21:41;28.52;;;13.23;;
48367;SDS011;34173;47.446;18.912;2022-11-20T04:24:09;26.42;;;13.32;;
48367;SDS011;34173;47.446;18.912;2022-11-20T04:26:37;27.45;;;13.32;;
48367;SDS011;34173;47.446;18.912;2022-11-20T04:29:05;23.30;;;11.93;;
48367;SDS011;34173;47.446;18.912;2022-11-20T04:31:33;28.67;;;12.70;;
48367;SDS011;34173;47.446;18.912;2022-11-20T04:34:02;27.77;;;11.60;;
48367;SDS011;34173;47.446;18.912;2022-11-20T04:36:31;24.02;;;11.02;;
48367;SDS011;34173;47.446;18.912;2022-11-20T04:38:59;26.10;;;11.68;;
48367;SDS011;34173;47.446;18.912;2022-11-20T04:41:29;28.75;;;12.93;;
48367;SDS011;34173;47.446;18.912;2022-11-20T04:43:59;25.35;;;12.00;;
48367;SDS011;34173;47.446;18.912;2022-11-20T04:46:31;25.62;;;12.25;;
48367;SDS011;34173;47.446;18.912;2022-11-20T04:49:01;28.33;;;12.55;;
48367;SDS011;34173;47.446;18.912;2022-11-20T04:51:28;23.12;;;10.70;;
48367;SDS011;34173;47.446;18.912;2022-11-20T04:53:56;28.27;;;12.02;;
48367;SDS011;34173;47.446;18.912;2022-11-20T04:56:23;28.12;;;13.60;;
48367;SDS011;34173;47.446;18.912;2022-11-20T04:58:51;27.20;;;12.80;;
48367;SDS011;34173;47.446;18.912;2022-11-20T05:01:19;26.20;;;11.98;;
48367;SDS011;34173;47.446;18.912;2022-11-20T05:03:48;29.30;;;11.45;;
48367;SDS011;34173;47.446;18.912;2022-11-20T05:06:17;28.23;;;12.73;;
48367;SDS011;34173;47.446;18.912;2022-11-20T05:09:03;30.62;;;12.77;;
48367;SDS011;34173;47.446;18.912;2022-11-20T05:11:31;28.90;;;12.73;;
48367;SDS011;34173;47.446;18.912;2022-11-20T05:13:58;26.37;;;12.25;;
48367;SDS011;34173;47.446;18.912;2022-11-20T05:16:27;26.15;;;11.85;;
48367;SDS011;34173;47.446;18.912;2022-11-20T05:18:54;26.50;;;11.73;;
48367;SDS011;34173;47.446;18.912;2022-11-20T05:21:22;26.50;;;12.00;;
48367;SDS011;34173;47.446;18.912;2022-11-20T05:23:50;26.87;;;13.18;;
48367;SDS011;34173;47.446;18.912;2022-11-20T05:26:18;28.33;;;13.75;;
48367;SDS011;34173;47.446;18.912;2022-11-20T05:28:48;30.95;;;13.13;;
48367;SDS011;34173;47.446;18.912;2022-11-20T05:31:20;29.52;;;13.73;;
48367;SDS011;34173;47.446;18.912;2022-11-20T05:33:54;29.17;;;12.25;;
48367;SDS011;34173;47.446;18.912;2022-11-20T05:36:23;28.15;;;12.30;;
48367;SDS011;34173;47.446;18.912;2022-11-20T05:38:50;28.15;;;12.88;;
48367;SDS011;34173;47.446;18.912;2022-11-20T05:41:24;26.43;;;12.33;;
48367;SDS011;34173;47.446;18.912;2022-11-20T05:43:52;28.23;;;12.77;;
48367;SDS011;34173;47.446;18.912;2022-11-20T05:46:20;23.98;;;11.70;;
48367;SDS011;34173;47.446;18.912;2022-11-20T05:48:54;24.17;;;12.52;;
48367;SDS011;34173;47.446;18.912;2022-11-20T05:51:23;27.30;;;12.15;;
48367;SDS011;34173;47.446;18.912;2022-11-20T05:53:50;28.52;;;11.90;;
48367;SDS011;34173;47.446;18.912;2022-11-20T05:56:19;24.98;;;12.23;;
48367;SDS011;34173;47.446;18.912;2022-11-20T05:58:47;25.58;;;11.75;;
48367;SDS011;34173;47.446;18.912;2022-11-20T06:01:17;23.60;;;11.20;;
48367;SDS011;34173;47.446;18.912;2022-11-20T06:03:46;25.58;;;12.35;;
48367;SDS011;34173;47.446;18.912;2022-11-20T06:06:14;24.25;;;11.40;;
48367;SDS011;34173;47.446;18.912;2022-11-20T06:08:42;23.67;;;10.73;;
48367;SDS011;34173;47.446;18.912;2022-11-20T06:11:11;26.05;;;11.38;;
48367;SDS011;34173;47.446;18.912;2022-11-20T06:13:41;25.90;;;12.30;;
48367;SDS011;34173;47.446;18.912;2022-11-20T06:16:09;24.48;;;12.52;;
48367;SDS011;34173;47.446;18.912;2022-11-20T06:18:38;28.90;;;12.32;;
48367;SDS011;34173;47.446;18.912;2022-11-20T06:21:07;28.80;;;13.52;;
48367;SDS011;34173;47.446;18.912;2022-11-20T06:23:36;29.70;;;14.43;;
48367;SDS011;34173;47.446;18.912;2022-11-20T06:26:04;32.03;;;14.07;;
48367;SDS011;34173;47.446;18.912;2022-11-20T06:28:42;28.65;;;13.25;;
48367;SDS011;34173;47.446;18.912;2022-11-20T06:31:11;33.15;;;14.00;;
48367;SDS011;34173;47.446;18.912;2022-11-20T06:33:40;32.50;;;15.07;;
48367;SDS011;34173;47.446;18.912;2022-11-20T06:36:09;27.65;;;13.98;;
48367;SDS011;34173;47.446;18.912;2022-11-20T06:38:38;29.37;;;14.55;;
48367;SDS011;34173;47.446;18.912;2022-11-20T06:41:06;33.35;;;16.30;;
48367;SDS011;34173;47.446;18.912;2022-11-20T06:43:35;29.08;;;13.68;;
48367;SDS011;34173;47.446;18.912;2022-11-20T06:46:03;30.58;;;14.25;;
48367;SDS011;34173;47.446;18.912;2022-11-20T06:48:30;31.33;;;14.85;;
48367;SDS011;34173;47.446;18.912;2022-11-20T06:50:58;28.92;;;14.55;;
48367;SDS011;34173;47.446;18.912;2022-11-20T06:53:25;32.22;;;14.65;;
48367;SDS011;34173;47.446;18.912;2022-11-20T06:55:55;31.12;;;15.27;;
48367;SDS011;34173;47.446;18.912;2022-11-20T06:58:23;33.08;;;14.10;;
48367;SDS011;34173;47.446;18.912;2022-11-20T07:00:53;26.55;;;12.77;;
48367;SDS011;34173;47.446;18.912;2022-11-20T07:03:24;27.48;;;13.20;;
48367;SDS011;34173;47.446;18.912;2022-11-20T07:05:54;28.08;;;12.90;;
48367;SDS011;34173;47.446;18.912;2022-11-20T07:08:22;26.90;;;12.55;;
48367;SDS011;34173;47.446;18.912;2022-11-20T07:10:50;30.55;;;14.43;;
48367;SDS011;34173;47.446;18.912;2022-11-20T07:13:17;30.37;;;14.30;;
48367;SDS011;34173;47.446;18.912;2022-11-20T07:15:44;29.15;;;15.13;;
48367;SDS011;34173;47.446;18.912;2022-11-20T07:18:12;33.63;;;14.80;;
48367;SDS011;34173;47.446;18.912;2022-11-20T07:20:39;32.65;;;15.48;;
48367;SDS011;34173;47.446;18.912;2022-11-20T07:23:07;29.92;;;13.85;;
48367;SDS011;34173;47.446;18.912;2022-11-20T07:25:35;32.65;;;14.57;;
48367;SDS011;34173;47.446;18.912;2022-11-20T07:28:02;28.95;;;12.93;;
48367;SDS011;34173;47.446;18.912;2022-11-20T07:30:30;29.87;;;14.05;;
48367;SDS011;34173;47.446;18.912;2022-11-20T07:32:58;27.83;;;13.13;;
48367;SDS011;34173;47.446;18.912;2022-11-20T07:35:25;30.92;;;13.80;;
48367;SDS011;34173;47.446;18.912;2022-11-20T07:37:53;33.65;;;14.93;;
48367;SDS011;34173;47.446;18.912;2022-11-20T07:40:20;32.22;;;15.82;;
48367;SDS011;34173;47.446;18.912;2022-11-20T07:42:48;33.42;;;15.18;;
48367;SDS011;34173;47.446;18.912;2022-11-20T07:45:19;33.40;;;14.52;;
48367;SDS011;34173;47.446;18.912;2022-11-20T07:47:48;32.58;;;13.93;;
48367;SDS011;34173;47.446;18.912;2022-11-20T07:50:15;31.73;;;14.23;;
48367;SDS011;34173;47.446;18.912;2022-11-20T07:52:43;28.27;;;13.65;;
48367;SDS011;34173;47.446;18.912;2022-11-20T07:55:11;33.47;;;15.75;;
48367;SDS011;34173;47.446;18.912;2022-11-20T07:57:38;29.45;;;14.45;;
48367;SDS011;34173;47.446;18.912;2022-11-20T08:00:07;33.40;;;15.40;;
48367;SDS011;34173;47.446;18.912;2022-11-20T08:02:38;29.15;;;14.87;;
48367;SDS011;34173;47.446;18.912;2022-11-20T08:05:07;29.65;;;13.85;;
48367;SDS011;34173;47.446;18.912;2022-11-20T08:07:38;28.60;;;13.60;;
48367;SDS011;34173;47.446;18.912;2022-11-20T08:10:08;28.95;;;14.27;;
48367;SDS011;34173;47.446;18.912;2022-11-20T08:12:43;33.25;;;13.90;;
48367;SDS011;34173;47.446;18.912;2022-11-20T08:15:30;35.88;;;16.62;;
48367;SDS011;34173;47.446;18.912;2022-11-20T08:17:59;36.28;;;17.30;;
48367;SDS011;34173;47.446;18.912;2022-11-20T08:21:03;32.08;;;14.70;;
48367;SDS011;34173;47.446;18.912;2022-11-20T08:23:31;35.42;;;16.75;;
48367;SDS011;34173;47.446;18.912;2022-11-20T08:25:58;33.85;;;15.95;;
48367;SDS011;34173;47.446;18.912;2022-11-20T08:28:26;36.80;;;17.45;;
48367;SDS011;34173;47.446;18.912;2022-11-20T08:30:57;30.73;;;16.40;;
48367;SDS011;34173;47.446;18.912;2022-11-20T08:33:25;33.58;;;15.63;;
48367;SDS011;34173;47.446;18.912;2022-11-20T08:35:53;30.45;;;15.40;;
48367;SDS011;34173;47.446;18.912;2022-11-20T08:38:20;34.80;;;15.73;;
48367;SDS011;34173;47.446;18.912;2022-11-20T08:40:49;32.15;;;15.38;;
48367;SDS011;34173;47.446;18.912;2022-11-20T08:43:36;28.30;;;13.27;;
48367;SDS011;34173;47.446;18.912;2022-11-20T08:46:03;28.73;;;13.55;;
48367;SDS011;34173;47.446;18.912;2022-11-20T08:48:31;30.02;;;14.43;;
48367;SDS011;34173;47.446;18.912;2022-11-20T08:50:58;29.33;;;14.02;;
48367;SDS011;34173;47.446;18.912;2022-11-20T08:53:26;28.55;;;14.50;;
48367;SDS011;34173;47.446;18.912;2022-11-20T08:55:54;30.45;;;14.55;;
48367;SDS011;34173;47.446;18.912;2022-11-20T08:58:24;29.87;;;15.18;;
48367;SDS011;34173;47.446;18.912;2022-11-20T09:00:52;32.67;;;15.75;;
48367;SDS011;34173;47.446;18.912;2022-11-20T09:03:20;29.67;;;15.15;;
48367;SDS011;34173;47.446;18.912;2022-11-20T09:05:47;29.17;;;14.32;;
48367;SDS011;34173;47.446;18.912;2022-11-20T09:08:15;30.55;;;14.52;;
48367;SDS011;34173;47.446;18.912;2022-11-20T09:10:42;29.50;;;14.80;;
48367;SDS011;34173;47.446;18.912;2022-11-20T09:13:10;32.72;;;15.05;;
48367;SDS011;34173;47.446;18.912;2022-11-20T09:15:37;34.05;;;14.07;;
48367;SDS011;34173;47.446;18.912;2022-11-20T09:18:04;32.50;;;14.30;;
48367;SDS011;34173;47.446;18.912;2022-11-20T09:20:32;27.08;;;12.90;;
48367;SDS011;34173;47.446;18.912;2022-11-20T09:22:59;28.62;;;13.62;;
48367;SDS011;34173;47.446;18.912;2022-11-20T09:25:27;31.20;;;14.73;;
48367;SDS011;34173;47.446;18.912;2022-11-20T09:27:58;30.12;;;14.70;;
48367;SDS011;34173;47.446;18.912;2022-11-20T09:30:26;32.75;;;16.27;;
48367;SDS011;34173;47.446;18.912;2022-11-20T09:32:54;30.98;;;14.25;;
48367;SDS011;34173;47.446;18.912;2022-11-20T09:35:22;32.08;;;16.85;;
48367;SDS011;34173;47.446;18.912;2022-11-20T09:37:49;30.80;;;15.00;;
48367;SDS011;34173;47.446;18.912;2022-11-20T09:40:25;33.15;;;16.12;;
48367;SDS011;34173;47.446;18.912;2022-11-20T09:45:55;39.50;;;19.23;;
48367;SDS011;34173;47.446;18.912;2022-11-20T09:54:17;32.63;;;14.85;;
48367;SDS011;34173;47.446;18.912;2022-11-20T09:56:56;33.05;;;14.55;;
48367;SDS011;34173;47.446;18.912;2022-11-20T09:59:34;32.30;;;16.25;;
48367;SDS011;34173;47.446;18.912;2022-11-20T10:04:47;35.50;;;15.38;;
48367;SDS011;34173;47.446;18.912;2022-11-20T10:07:22;30.60;;;13.70;;
48367;SDS011;34173;47.446;18.912;2022-11-20T10:09:59;31.37;;;15.23;;
48367;SDS011;34173;47.446;18.912;2022-11-20T10:15:58;28.23;;;13.65;;
48367;SDS011;34173;47.446;18.912;2022-11-20T10:21:23;30.33;;;15.00;;
48367;SDS011;34173;47.446;18.912;2022-11-20T10:27:15;35.67;;;16.98;;
48367;SDS011;34173;47.446;18.912;2022-11-20T10:29:46;31.70;;;14.57;;
48367;SDS011;34173;47.446;18.912;2022-11-20T10:32:18;32.63;;;15.07;;
48367;SDS011;34173;47.446;18.912;2022-11-20T10:34:51;31.00;;;14.68;;
48367;SDS011;34173;47.446;18.912;2022-11-20T10:37:24;30.80;;;14.50;;
48367;SDS011;34173;47.446;18.912;2022-11-20T10:40:00;29.30;;;13.90;;
48367;SDS011;34173;47.446;18.912;2022-11-20T10:42:46;31.05;;;14.82;;
48367;SDS011;34173;47.446;18.912;2022-11-20T10:47:55;37.72;;;17.15;;
48367;SDS011;34173;47.446;18.912;2022-11-20T10:50:25;30.88;;;14.52;;
48367;SDS011;34173;47.446;18.912;2022-11-20T10:55:54;30.62;;;13.82;;
48367;SDS011;34173;47.446;18.912;2022-11-20T11:01:13;32.60;;;14.87;;
48367;SDS011;34173;47.446;18.912;2022-11-20T11:03:43;30.42;;;14.90;;
48367;SDS011;34173;47.446;18.912;2022-11-20T11:06:25;37.22;;;17.20;;
48367;SDS011;34173;47.446;18.912;2022-11-20T11:08:58;34.60;;;15.70;;
48367;SDS011;34173;47.446;18.912;2022-11-20T11:11:30;39.45;;;22.17;;
48367;SDS011;34173;47.446;18.912;2022-11-20T11:14:06;32.63;;;16.98;;
48367;SDS011;34173;47.446;18.912;2022-11-20T11:16:51;32.53;;;16.55;;
48367;SDS011;34173;47.446;18.912;2022-11-20T11:19:20;34.75;;;17.08;;
48367;SDS011;34173;47.446;18.912;2022-11-20T11:21:49;36.67;;;19.67;;
48367;SDS011;34173;47.446;18.912;2022-11-20T11:24:26;32.65;;;16.12;;
48367;SDS011;34173;47.446;18.912;2022-11-20T11:27:11;32.95;;;16.50;;
48367;SDS011;34173;47.446;18.912;2022-11-20T11:29:44;29.12;;;14.82;;
48367;SDS011;34173;47.446;18.912;2022-11-20T11:32:17;32.95;;;15.75;;
48367;SDS011;34173;47.446;18.912;2022-11-20T11:34:58;29.05;;;13.62;;
48367;SDS011;34173;47.446;18.912;2022-11-20T11:37:33;34.35;;;16.55;;
48367;SDS011;34173;47.446;18.912;2022-11-20T11:40:03;30.00;;;15.45;;
48367;SDS011;34173;47.446;18.912;2022-11-20T11:42:54;30.17;;;13.90;;
48367;SDS011;34173;47.446;18.912;2022-11-20T11:45:24;27.95;;;13.93;;
48367;SDS011;34173;47.446;18.912;2022-11-20T11:47:52;36.63;;;17.83;;
48367;SDS011;34173;47.446;18.912;2022-11-20T11:50:24;31.73;;;15.27;;
48367;SDS011;34173;47.446;18.912;2022-11-20T11:55:37;34.63;;;17.35;;
48367;SDS011;34173;47.446;18.912;2022-11-20T12:00:50;33.58;;;16.33;;
48367;SDS011;34173;47.446;18.912;2022-11-20T12:03:34;35.55;;;16.50;;
48367;SDS011;34173;47.446;18.912;2022-11-20T12:06:11;33.47;;;16.05;;
48367;SDS011;34173;47.446;18.912;2022-11-20T12:08:49;34.60;;;17.40;;
48367;SDS011;34173;47.446;18.912;2022-11-20T12:11:24;37.22;;;17.55;;
48367;SDS011;34173;47.446;18.912;2022-11-20T12:14:13;37.83;;;17.48;;
48367;SDS011;34173;47.446;18.912;2022-11-20T12:16:46;36.70;;;17.60;;
48367;SDS011;34173;47.446;18.912;2022-11-20T12:19:14;34.40;;;17.87;;
48367;SDS011;34173;47.446;18.912;2022-11-20T12:21:48;35.78;;;16.52;;
48367;SDS011;34173;47.446;18.912;2022-11-20T12:24:51;36.75;;;17.02;;
48367;SDS011;34173;47.446;18.912;2022-11-20T12:27:40;37.95;;;18.12;;
48367;SDS011;34173;47.446;18.912;2022-11-20T12:30:15;34.85;;;15.48;;
48367;SDS011;34173;47.446;18.912;2022-11-20T12:41:39;38.28;;;16.35;;
48367;SDS011;34173;47.446;18.912;2022-11-20T12:56:17;65.80;;;24.20;;
48367;SDS011;34173;47.446;18.912;2022-11-20T13:07:13;45.65;;;22.80;;
48367;SDS011;34173;47.446;18.912;2022-11-20T13:09:47;42.88;;;20.08;;
48367;SDS011;34173;47.446;18.912;2022-11-20T13:12:33;38.08;;;17.95;;
48367;SDS011;34173;47.446;18.912;2022-11-20T13:17:36;33.25;;;16.62;;
48367;SDS011;34173;47.446;18.912;2022-11-20T13:20:18;39.80;;;17.73;;
48367;SDS011;34173;47.446;18.912;2022-11-20T13:22:46;34.05;;;14.95;;
48367;SDS011;34173;47.446;18.912;2022-11-20T13:25:22;31.77;;;16.20;;
48367;SDS011;34173;47.446;18.912;2022-11-20T13:27:51;36.67;;;17.50;;
48367;SDS011;34173;47.446;18.912;2022-11-20T13:30:23;35.92;;;16.33;;
48367;SDS011;34173;47.446;18.912;2022-11-20T13:35:29;35.28;;;16.40;;
48367;SDS011;34173;47.446;18.912;2022-11-20T13:40:29;34.53;;;16.50;;
48367;SDS011;34173;47.446;18.912;2022-11-20T13:43:02;34.58;;;16.85;;
48367;SDS011;34173;47.446;18.912;2022-11-20T13:45:36;38.30;;;16.55;;
48367;SDS011;34173;47.446;18.912;2022-11-20T13:48:14;33.60;;;15.35;;
48367;SDS011;34173;47.446;18.912;2022-11-20T13:50:56;32.47;;;15.93;;
48367;SDS011;34173;47.446;18.912;2022-11-20T13:56:24;33.67;;;16.02;;
48367;SDS011;34173;47.446;18.912;2022-11-20T13:59:24;34.33;;;15.35;;
48367;SDS011;34173;47.446;18.912;2022-11-20T14:02:00;31.58;;;15.98;;
48367;SDS011;34173;47.446;18.912;2022-11-20T14:04:30;31.33;;;14.87;;
48367;SDS011;34173;47.446;18.912;2022-11-20T14:07:00;34.40;;;15.98;;
48367;SDS011;34173;47.446;18.912;2022-11-20T14:09:30;31.70;;;15.93;;
48367;SDS011;34173;47.446;18.912;2022-11-20T14:11:59;33.70;;;16.08;;
48367;SDS011;34173;47.446;18.912;2022-11-20T14:14:27;32.28;;;15.70;;
48367;SDS011;34173;47.446;18.912;2022-11-20T14:17:06;35.33;;;16.83;;
48367;SDS011;34173;47.446;18.912;2022-11-20T14:19:34;42.38;;;20.02;;
48367;SDS011;34173;47.446;18.912;2022-11-20T14:22:23;38.00;;;17.60;;
48367;SDS011;34173;47.446;18.912;2022-11-20T14:25:01;53.80;;;27.23;;
48367;SDS011;34173;47.446;18.912;2022-11-20T14:27:33;39.70;;;19.60;;
48367;SDS011;34173;47.446;18.912;2022-11-20T14:30:16;48.25;;;25.08;;
48367;SDS011;34173;47.446;18.912;2022-11-20T14:32:46;44.85;;;19.52;;
48367;SDS011;34173;47.446;18.912;2022-11-20T14:35:18;39.25;;;17.65;;
48367;SDS011;34173;47.446;18.912;2022-11-20T14:37:49;36.75;;;17.95;;
48367;SDS011;34173;47.446;18.912;2022-11-20T14:40:36;38.35;;;19.40;;
48367;SDS011;34173;47.446;18.912;2022-11-20T14:46:00;39.50;;;19.20;;
48367;SDS011;34173;47.446;18.912;2022-11-20T14:48:38;45.65;;;20.67;;
48367;SDS011;34173;47.446;18.912;2022-11-20T14:51:08;37.15;;;18.87;;
48367;SDS011;34173;47.446;18.912;2022-11-20T14:53:39;42.65;;;21.20;;
48367;SDS011;34173;47.446;18.912;2022-11-20T14:56:07;51.17;;;25.62;;
48367;SDS011;34173;47.446;18.912;2022-11-20T14:58:35;60.20;;;29.63;;
48367;SDS011;34173;47.446;18.912;2022-11-20T15:01:05;120.32;;;47.53;;
48367;SDS011;34173;47.446;18.912;2022-11-20T15:03:35;117.20;;;49.17;;
48367;SDS011;34173;47.446;18.912;2022-11-20T15:06:06;155.15;;;57.58;;
48367;SDS011;34173;47.446;18.912;2022-11-20T15:08:35;146.90;;;48.63;;
48367;SDS011;34173;47.446;18.912;2022-11-20T15:11:14;147.20;;;48.80;;
48367;SDS011;34173;47.446;18.912;2022-11-20T15:13:45;78.55;;;35.72;;
48367;SDS011;34173;47.446;18.912;2022-11-20T15:16:18;50.65;;;24.20;;
48367;SDS011;34173;47.446;18.912;2022-11-20T15:18:48;45.65;;;21.23;;
48367;SDS011;34173;47.446;18.912;2022-11-20T15:21:16;43.10;;;21.33;;
48367;SDS011;34173;47.446;18.912;2022-11-20T15:23:45;50.50;;;20.60;;
48367;SDS011;34173;47.446;18.912;2022-11-20T15:26:22;48.58;;;22.05;;
48367;SDS011;34173;47.446;18.912;2022-11-20T15:28:51;41.05;;;19.08;;
48367;SDS011;34173;47.446;18.912;2022-11-20T15:31:21;41.30;;;18.70;;
48367;SDS011;34173;47.446;18.912;2022-11-20T15:33:51;75.28;;;33.15;;
48367;SDS011;34173;47.446;18.912;2022-11-20T15:36:19;52.83;;;24.35;;
48367;SDS011;34173;47.446;18.912;2022-11-20T15:38:48;57.47;;;27.00;;
48367;SDS011;34173;47.446;18.912;2022-11-20T15:41:16;112.47;;;63.53;;
48367;SDS011;34173;47.446;18.912;2022-11-20T15:43:44;70.93;;;42.42;;
48367;SDS011;34173;47.446;18.912;2022-11-20T15:46:15;39.53;;;19.73;;
48367;SDS011;34173;47.446;18.912;2022-11-20T15:48:45;39.28;;;19.45;;
48367;SDS011;34173;47.446;18.912;2022-11-20T15:51:32;41.35;;;20.20;;
48367;SDS011;34173;47.446;18.912;2022-11-20T15:54:09;42.53;;;18.98;;
48367;SDS011;34173;47.446;18.912;2022-11-20T15:56:38;42.90;;;19.92;;